sensor_id;sensor_type;location;lat;lon;timestamp;temperature;humidity
38941;DHT22;43236;47.208;7.518;2023-03-01T00:01:47;4.40;79.20
38941;DHT22;43236;47.208;7.518;2023-03-01T00:04:36;4.40;79.40
38941;DHT22;43236;47.208;7.518;2023-03-01T00:07:23;4.50;79.50
38941;DHT22;43236;47.208;7.518;2023-03-01T00:10:11;4.50;79.40
38941;DHT22;43236;47.208;7.518;2023-03-01T00:12:58;4.60;79.30
38941;DHT22;43236;47.208;7.518;2023-03-01T00:15:45;4.60;79.30
38941;DHT22;43236;47.208;7.518;2023-03-01T00:18:32;4.60;79.30
38941;DHT22;43236;47.208;7.518;2023-03-01T00:21:21;4.60;79.30
38941;DHT22;43236;47.208;7.518;2023-03-01T00:24:09;4.50;79.30
38941;DHT22;43236;47.208;7.518;2023-03-01T00:26:57;4.60;79.30
38941;DHT22;43236;47.208;7.518;2023-03-01T00:29:44;4.60;79.40
38941;DHT22;43236;47.208;7.518;2023-03-01T00:32:31;4.70;79.40
38941;DHT22;43236;47.208;7.518;2023-03-01T00:35:18;4.50;79.30
38941;DHT22;43236;47.208;7.518;2023-03-01T00:38:06;4.50;79.30
38941;DHT22;43236;47.208;7.518;2023-03-01T00:40:53;4.50;79.30
38941;DHT22;43236;47.208;7.518;2023-03-01T00:43:41;4.50;79.40
38941;DHT22;43236;47.208;7.518;2023-03-01T00:46:28;4.40;79.70
38941;DHT22;43236;47.208;7.518;2023-03-01T00:49:16;4.40;79.70
38941;DHT22;43236;47.208;7.518;2023-03-01T00:52:03;4.40;79.70
38941;DHT22;43236;47.208;7.518;2023-03-01T00:54:53;4.40;79.70
38941;DHT22;43236;47.208;7.518;2023-03-01T00:57:40;4.40;80.00
38941;DHT22;43236;47.208;7.518;2023-03-01T01:00:27;4.40;79.60
38941;DHT22;43236;47.208;7.518;2023-03-01T01:03:14;4.40;79.70
38941;DHT22;43236;47.208;7.518;2023-03-01T01:06:01;4.30;79.90
38941;DHT22;43236;47.208;7.518;2023-03-01T01:08:55;4.40;80.30
38941;DHT22;43236;47.208;7.518;2023-03-01T01:11:44;4.50;80.00
38941;DHT22;43236;47.208;7.518;2023-03-01T01:14:32;4.50;80.10
38941;DHT22;43236;47.208;7.518;2023-03-01T01:17:19;4.40;79.60
38941;DHT22;43236;47.208;7.518;2023-03-01T01:20:07;4.50;79.50
38941;DHT22;43236;47.208;7.518;2023-03-01T01:22:55;4.40;79.60
38941;DHT22;43236;47.208;7.518;2023-03-01T01:25:42;4.40;79.60
38941;DHT22;43236;47.208;7.518;2023-03-01T01:28:30;4.40;79.60
38941;DHT22;43236;47.208;7.518;2023-03-01T01:31:18;4.40;79.80
38941;DHT22;43236;47.208;7.518;2023-03-01T01:34:07;4.50;79.90
38941;DHT22;43236;47.208;7.518;2023-03-01T01:36:55;4.50;79.70
38941;DHT22;43236;47.208;7.518;2023-03-01T01:39:42;4.50;79.90
38941;DHT22;43236;47.208;7.518;2023-03-01T01:42:29;4.50;79.70
38941;DHT22;43236;47.208;7.518;2023-03-01T01:45:28;4.50;79.70
38941;DHT22;43236;47.208;7.518;2023-03-01T01:48:19;4.40;79.60
38941;DHT22;43236;47.208;7.518;2023-03-01T01:51:11;4.40;79.60
38941;DHT22;43236;47.208;7.518;2023-03-01T01:54:00;4.50;80.00
38941;DHT22;43236;47.208;7.518;2023-03-01T01:56:50;4.50;79.70
38941;DHT22;43236;47.208;7.518;2023-03-01T01:59:39;4.50;79.50
38941;DHT22;43236;47.208;7.518;2023-03-01T02:02:29;4.50;79.60
38941;DHT22;43236;47.208;7.518;2023-03-01T02:05:28;4.50;79.50
38941;DHT22;43236;47.208;7.518;2023-03-01T02:08:20;4.50;79.70
38941;DHT22;43236;47.208;7.518;2023-03-01T02:11:08;4.50;79.80
38941;DHT22;43236;47.208;7.518;2023-03-01T02:13:56;4.50;79.50
38941;DHT22;43236;47.208;7.518;2023-03-01T02:16:44;4.50;79.40
38941;DHT22;43236;47.208;7.518;2023-03-01T02:19:42;4.50;79.70
38941;DHT22;43236;47.208;7.518;2023-03-01T02:22:31;4.50;79.40
38941;DHT22;43236;47.208;7.518;2023-03-01T02:25:31;4.50;79.20
38941;DHT22;43236;47.208;7.518;2023-03-01T02:28:32;4.50;79.30
38941;DHT22;43236;47.208;7.518;2023-03-01T02:31:20;4.60;79.70
38941;DHT22;43236;47.208;7.518;2023-03-01T02:34:26;4.60;79.50
38941;DHT22;43236;47.208;7.518;2023-03-01T02:37:16;4.60;79.60
38941;DHT22;43236;47.208;7.518;2023-03-01T02:40:13;4.70;79.50
38941;DHT22;43236;47.208;7.518;2023-03-01T02:43:04;4.60;79.40
38941;DHT22;43236;47.208;7.518;2023-03-01T02:45:57;4.60;79.50
38941;DHT22;43236;47.208;7.518;2023-03-01T02:48:47;4.70;79.90
38941;DHT22;43236;47.208;7.518;2023-03-01T02:51:45;4.70;79.20
38941;DHT22;43236;47.208;7.518;2023-03-01T02:54:40;4.70;79.40
38941;DHT22;43236;47.208;7.518;2023-03-01T02:57:29;4.70;79.60
38941;DHT22;43236;47.208;7.518;2023-03-01T03:00:20;4.70;79.60
38941;DHT22;43236;47.208;7.518;2023-03-01T03:03:10;4.70;79.40
38941;DHT22;43236;47.208;7.518;2023-03-01T03:06:00;4.70;79.60
38941;DHT22;43236;47.208;7.518;2023-03-01T03:08:47;4.70;79.50
38941;DHT22;43236;47.208;7.518;2023-03-01T03:11:34;4.70;79.80
38941;DHT22;43236;47.208;7.518;2023-03-01T03:14:22;4.70;79.60
38941;DHT22;43236;47.208;7.518;2023-03-01T03:17:09;4.70;79.60
38941;DHT22;43236;47.208;7.518;2023-03-01T03:19:57;4.70;79.40
38941;DHT22;43236;47.208;7.518;2023-03-01T03:22:45;4.70;79.60
38941;DHT22;43236;47.208;7.518;2023-03-01T03:25:32;4.70;79.60
38941;DHT22;43236;47.208;7.518;2023-03-01T03:28:23;4.60;79.60
38941;DHT22;43236;47.208;7.518;2023-03-01T03:31:10;4.60;79.50
38941;DHT22;43236;47.208;7.518;2023-03-01T03:33:57;4.60;79.60
38941;DHT22;43236;47.208;7.518;2023-03-01T03:36:46;4.60;79.80
38941;DHT22;43236;47.208;7.518;2023-03-01T03:39:34;4.60;79.90
38941;DHT22;43236;47.208;7.518;2023-03-01T03:42:21;4.70;80.00
38941;DHT22;43236;47.208;7.518;2023-03-01T03:45:08;4.70;79.90
38941;DHT22;43236;47.208;7.518;2023-03-01T03:47:55;4.80;80.10
38941;DHT22;43236;47.208;7.518;2023-03-01T03:50:48;4.80;79.90
38941;DHT22;43236;47.208;7.518;2023-03-01T03:53:36;4.80;79.70
38941;DHT22;43236;47.208;7.518;2023-03-01T03:56:23;4.70;79.70
38941;DHT22;43236;47.208;7.518;2023-03-01T03:59:11;4.80;79.70
38941;DHT22;43236;47.208;7.518;2023-03-01T04:01:58;4.70;79.80
38941;DHT22;43236;47.208;7.518;2023-03-01T04:04:46;4.60;79.90
38941;DHT22;43236;47.208;7.518;2023-03-01T04:07:35;4.70;80.10
38941;DHT22;43236;47.208;7.518;2023-03-01T04:10:24;4.60;80.00
38941;DHT22;43236;47.208;7.518;2023-03-01T04:13:13;4.60;80.20
38941;DHT22;43236;47.208;7.518;2023-03-01T04:16:01;4.60;80.20
38941;DHT22;43236;47.208;7.518;2023-03-01T04:18:48;4.70;80.40
38941;DHT22;43236;47.208;7.518;2023-03-01T04:21:35;4.70;80.40
38941;DHT22;43236;47.208;7.518;2023-03-01T04:24:22;4.70;80.50
38941;DHT22;43236;47.208;7.518;2023-03-01T04:27:11;4.70;80.40
38941;DHT22;43236;47.208;7.518;2023-03-01T04:29:58;4.80;80.40
38941;DHT22;43236;47.208;7.518;2023-03-01T04:32:45;4.80;80.30
38941;DHT22;43236;47.208;7.518;2023-03-01T04:35:33;4.80;80.20
38941;DHT22;43236;47.208;7.518;2023-03-01T04:38:21;4.80;80.10
38941;DHT22;43236;47.208;7.518;2023-03-01T04:41:10;4.70;80.10
38941;DHT22;43236;47.208;7.518;2023-03-01T04:43:58;4.80;80.40
38941;DHT22;43236;47.208;7.518;2023-03-01T04:46:48;4.80;80.50
38941;DHT22;43236;47.208;7.518;2023-03-01T04:49:35;4.80;80.40
38941;DHT22;43236;47.208;7.518;2023-03-01T04:52:22;4.80;80.50
38941;DHT22;43236;47.208;7.518;2023-03-01T04:55:10;4.90;80.30
38941;DHT22;43236;47.208;7.518;2023-03-01T04:57:57;4.90;80.30
38941;DHT22;43236;47.208;7.518;2023-03-01T05:00:46;4.90;80.30
38941;DHT22;43236;47.208;7.518;2023-03-01T05:03:33;4.90;80.50
38941;DHT22;43236;47.208;7.518;2023-03-01T05:06:20;4.90;80.60
38941;DHT22;43236;47.208;7.518;2023-03-01T05:09:08;5.60;81.20
38941;DHT22;43236;47.208;7.518;2023-03-01T05:11:57;4.90;80.40
38941;DHT22;43236;47.208;7.518;2023-03-01T05:14:44;4.90;81.30
38941;DHT22;43236;47.208;7.518;2023-03-01T05:17:32;4.90;80.60
38941;DHT22;43236;47.208;7.518;2023-03-01T05:20:19;4.90;80.70
38941;DHT22;43236;47.208;7.518;2023-03-01T05:23:08;4.90;80.70
38941;DHT22;43236;47.208;7.518;2023-03-01T05:25:58;4.90;80.70
38941;DHT22;43236;47.208;7.518;2023-03-01T05:28:45;4.90;80.40
38941;DHT22;43236;47.208;7.518;2023-03-01T05:31:32;4.80;80.40
38941;DHT22;43236;47.208;7.518;2023-03-01T05:34:23;4.80;80.70
38941;DHT22;43236;47.208;7.518;2023-03-01T05:37:11;4.80;80.70
38941;DHT22;43236;47.208;7.518;2023-03-01T05:39:58;4.80;80.70
38941;DHT22;43236;47.208;7.518;2023-03-01T05:42:46;4.80;80.90
38941;DHT22;43236;47.208;7.518;2023-03-01T05:45:36;4.70;81.10
38941;DHT22;43236;47.208;7.518;2023-03-01T05:48:23;4.80;81.30
38941;DHT22;43236;47.208;7.518;2023-03-01T05:51:12;4.80;81.10
38941;DHT22;43236;47.208;7.518;2023-03-01T05:53:59;4.80;81.10
38941;DHT22;43236;47.208;7.518;2023-03-01T05:56:46;4.80;80.90
38941;DHT22;43236;47.208;7.518;2023-03-01T05:59:33;4.80;80.90
38941;DHT22;43236;47.208;7.518;2023-03-01T06:02:20;4.80;81.00
38941;DHT22;43236;47.208;7.518;2023-03-01T06:05:09;4.80;81.00
38941;DHT22;43236;47.208;7.518;2023-03-01T06:08:00;4.80;81.30
38941;DHT22;43236;47.208;7.518;2023-03-01T06:10:47;4.80;81.30
38941;DHT22;43236;47.208;7.518;2023-03-01T06:13:34;4.80;81.20
38941;DHT22;43236;47.208;7.518;2023-03-01T06:16:21;4.90;81.30
38941;DHT22;43236;47.208;7.518;2023-03-01T06:19:08;4.90;81.00
38941;DHT22;43236;47.208;7.518;2023-03-01T06:21:55;4.90;81.00
38941;DHT22;43236;47.208;7.518;2023-03-01T06:24:44;4.90;81.10
38941;DHT22;43236;47.208;7.518;2023-03-01T06:27:31;4.90;81.00
38941;DHT22;43236;47.208;7.518;2023-03-01T06:30:19;4.80;81.10
38941;DHT22;43236;47.208;7.518;2023-03-01T06:33:07;4.80;81.30
38941;DHT22;43236;47.208;7.518;2023-03-01T06:35:55;4.90;81.70
38941;DHT22;43236;47.208;7.518;2023-03-01T06:38:42;4.90;81.60
38941;DHT22;43236;47.208;7.518;2023-03-01T06:41:30;4.90;81.50
38941;DHT22;43236;47.208;7.518;2023-03-01T06:44:18;4.90;81.50
38941;DHT22;43236;47.208;7.518;2023-03-01T06:47:05;4.90;81.40
38941;DHT22;43236;47.208;7.518;2023-03-01T06:49:52;5.00;81.70
38941;DHT22;43236;47.208;7.518;2023-03-01T06:52:39;5.00;81.40
38941;DHT22;43236;47.208;7.518;2023-03-01T06:55:27;4.90;81.30
38941;DHT22;43236;47.208;7.518;2023-03-01T06:58:15;4.90;81.40
38941;DHT22;43236;47.208;7.518;2023-03-01T07:01:05;4.90;81.50
38941;DHT22;43236;47.208;7.518;2023-03-01T07:03:52;5.00;81.40
38941;DHT22;43236;47.208;7.518;2023-03-01T07:06:39;5.00;81.60
38941;DHT22;43236;47.208;7.518;2023-03-01T07:09:27;5.00;81.70
38941;DHT22;43236;47.208;7.518;2023-03-01T07:12:14;5.00;81.60
38941;DHT22;43236;47.208;7.518;2023-03-01T07:15:03;5.00;81.60
38941;DHT22;43236;47.208;7.518;2023-03-01T07:17:50;5.00;81.80
38941;DHT22;43236;47.208;7.518;2023-03-01T07:20:37;5.00;81.80
38941;DHT22;43236;47.208;7.518;2023-03-01T07:23:24;5.00;81.80
38941;DHT22;43236;47.208;7.518;2023-03-01T07:26:11;5.00;81.90
38941;DHT22;43236;47.208;7.518;2023-03-01T07:28:58;5.00;81.70
38941;DHT22;43236;47.208;7.518;2023-03-01T07:31:47;5.00;81.90
38941;DHT22;43236;47.208;7.518;2023-03-01T07:34:34;4.90;81.90
38941;DHT22;43236;47.208;7.518;2023-03-01T07:37:21;4.90;81.90
38941;DHT22;43236;47.208;7.518;2023-03-01T07:40:09;4.90;82.60
38941;DHT22;43236;47.208;7.518;2023-03-01T07:42:56;4.90;82.00
38941;DHT22;43236;47.208;7.518;2023-03-01T07:45:44;4.90;82.20
38941;DHT22;43236;47.208;7.518;2023-03-01T07:48:32;4.90;82.20
38941;DHT22;43236;47.208;7.518;2023-03-01T07:51:19;4.90;82.60
38941;DHT22;43236;47.208;7.518;2023-03-01T07:54:06;4.90;82.40
38941;DHT22;43236;47.208;7.518;2023-03-01T07:56:53;5.00;82.40
38941;DHT22;43236;47.208;7.518;2023-03-01T07:59:41;5.00;82.40
38941;DHT22;43236;47.208;7.518;2023-03-01T08:02:28;5.00;82.40
38941;DHT22;43236;47.208;7.518;2023-03-01T08:05:16;4.90;82.30
38941;DHT22;43236;47.208;7.518;2023-03-01T08:08:04;5.00;82.70
38941;DHT22;43236;47.208;7.518;2023-03-01T08:10:51;5.00;82.70
38941;DHT22;43236;47.208;7.518;2023-03-01T08:13:39;5.00;82.80
38941;DHT22;43236;47.208;7.518;2023-03-01T08:16:26;5.00;82.80
38941;DHT22;43236;47.208;7.518;2023-03-01T08:19:13;5.00;82.70
38941;DHT22;43236;47.208;7.518;2023-03-01T08:22:02;5.00;82.30
38941;DHT22;43236;47.208;7.518;2023-03-01T08:24:49;5.00;82.70
38941;DHT22;43236;47.208;7.518;2023-03-01T08:27:36;5.10;82.80
38941;DHT22;43236;47.208;7.518;2023-03-01T08:30:23;5.10;82.80
38941;DHT22;43236;47.208;7.518;2023-03-01T08:33:10;5.20;82.70
38941;DHT22;43236;47.208;7.518;2023-03-01T08:36:04;5.20;82.60
38941;DHT22;43236;47.208;7.518;2023-03-01T08:38:54;5.20;82.40
38941;DHT22;43236;47.208;7.518;2023-03-01T08:41:41;5.20;82.30
38941;DHT22;43236;47.208;7.518;2023-03-01T08:44:28;5.20;82.30
38941;DHT22;43236;47.208;7.518;2023-03-01T08:47:15;5.20;82.50
38941;DHT22;43236;47.208;7.518;2023-03-01T08:50:03;5.20;82.80
38941;DHT22;43236;47.208;7.518;2023-03-01T08:52:50;5.10;82.60
38941;DHT22;43236;47.208;7.518;2023-03-01T08:55:39;5.10;82.70
38941;DHT22;43236;47.208;7.518;2023-03-01T08:58:26;5.20;83.00
38941;DHT22;43236;47.208;7.518;2023-03-01T09:01:15;5.20;82.70
38941;DHT22;43236;47.208;7.518;2023-03-01T09:04:03;5.20;82.70
38941;DHT22;43236;47.208;7.518;2023-03-01T09:06:49;5.20;82.70
38941;DHT22;43236;47.208;7.518;2023-03-01T09:09:37;5.20;82.50
38941;DHT22;43236;47.208;7.518;2023-03-01T09:12:25;5.20;82.50
38941;DHT22;43236;47.208;7.518;2023-03-01T09:15:12;5.20;82.70
38941;DHT22;43236;47.208;7.518;2023-03-01T09:17:59;5.30;82.80
38941;DHT22;43236;47.208;7.518;2023-03-01T09:20:46;5.20;82.70
38941;DHT22;43236;47.208;7.518;2023-03-01T09:23:34;5.20;83.00
38941;DHT22;43236;47.208;7.518;2023-03-01T09:26:24;5.30;83.00
38941;DHT22;43236;47.208;7.518;2023-03-01T09:29:13;5.30;82.80
38941;DHT22;43236;47.208;7.518;2023-03-01T09:32:00;5.30;82.80
38941;DHT22;43236;47.208;7.518;2023-03-01T09:34:47;5.30;83.10
38941;DHT22;43236;47.208;7.518;2023-03-01T09:37:53;5.40;83.00
38941;DHT22;43236;47.208;7.518;2023-03-01T09:40:43;5.40;82.80
38941;DHT22;43236;47.208;7.518;2023-03-01T09:43:40;5.40;82.50
38941;DHT22;43236;47.208;7.518;2023-03-01T09:46:36;5.40;83.00
38941;DHT22;43236;47.208;7.518;2023-03-01T09:49:29;5.40;82.50
38941;DHT22;43236;47.208;7.518;2023-03-01T09:52:23;5.40;82.80
38941;DHT22;43236;47.208;7.518;2023-03-01T09:55:14;5.30;82.60
38941;DHT22;43236;47.208;7.518;2023-03-01T09:58:14;5.30;82.90
38941;DHT22;43236;47.208;7.518;2023-03-01T10:01:20;5.40;82.70
38941;DHT22;43236;47.208;7.518;2023-03-01T10:07:31;5.40;83.00
38941;DHT22;43236;47.208;7.518;2023-03-01T10:10:32;5.50;82.90
38941;DHT22;43236;47.208;7.518;2023-03-01T10:13:24;5.50;82.90
38941;DHT22;43236;47.208;7.518;2023-03-01T10:16:16;5.60;83.00
38941;DHT22;43236;47.208;7.518;2023-03-01T10:19:05;5.60;82.60
38941;DHT22;43236;47.208;7.518;2023-03-01T10:21:54;5.60;82.80
38941;DHT22;43236;47.208;7.518;2023-03-01T10:24:44;5.60;82.50
38941;DHT22;43236;47.208;7.518;2023-03-01T10:27:38;5.50;82.40
38941;DHT22;43236;47.208;7.518;2023-03-01T10:30:35;5.50;82.60
38941;DHT22;43236;47.208;7.518;2023-03-01T10:33:27;5.60;82.80
38941;DHT22;43236;47.208;7.518;2023-03-01T10:36:16;5.60;82.70
38941;DHT22;43236;47.208;7.518;2023-03-01T10:39:12;5.50;82.20
38941;DHT22;43236;47.208;7.518;2023-03-01T10:42:01;5.50;82.20
38941;DHT22;43236;47.208;7.518;2023-03-01T10:44:49;5.60;82.50
38941;DHT22;43236;47.208;7.518;2023-03-01T10:47:36;5.50;82.10
38941;DHT22;43236;47.208;7.518;2023-03-01T10:50:23;5.60;82.70
38941;DHT22;43236;47.208;7.518;2023-03-01T10:53:25;5.60;82.60
38941;DHT22;43236;47.208;7.518;2023-03-01T10:56:16;6.70;83.60
38941;DHT22;43236;47.208;7.518;2023-03-01T10:59:04;5.60;82.10
38941;DHT22;43236;47.208;7.518;2023-03-01T11:05:17;5.70;82.50
38941;DHT22;43236;47.208;7.518;2023-03-01T11:08:05;5.70;82.40
38941;DHT22;43236;47.208;7.518;2023-03-01T11:11:04;5.60;82.10
38941;DHT22;43236;47.208;7.518;2023-03-01T11:13:58;5.50;81.90
38941;DHT22;43236;47.208;7.518;2023-03-01T11:16:47;5.50;82.70
38941;DHT22;43236;47.208;7.518;2023-03-01T11:19:34;5.60;82.70
38941;DHT22;43236;47.208;7.518;2023-03-01T11:22:22;5.60;82.20
38941;DHT22;43236;47.208;7.518;2023-03-01T11:25:13;5.70;82.20
38941;DHT22;43236;47.208;7.518;2023-03-01T11:28:03;5.70;81.90
38941;DHT22;43236;47.208;7.518;2023-03-01T11:30:55;5.70;81.70
38941;DHT22;43236;47.208;7.518;2023-03-01T11:33:46;5.70;81.90
38941;DHT22;43236;47.208;7.518;2023-03-01T11:36:36;5.70;81.80
38941;DHT22;43236;47.208;7.518;2023-03-01T11:39:30;5.70;82.20
38941;DHT22;43236;47.208;7.518;2023-03-01T11:42:22;5.70;82.20
38941;DHT22;43236;47.208;7.518;2023-03-01T11:45:13;5.70;82.20
38941;DHT22;43236;47.208;7.518;2023-03-01T11:48:19;5.70;81.70
38941;DHT22;43236;47.208;7.518;2023-03-01T11:51:15;5.80;82.40
38941;DHT22;43236;47.208;7.518;2023-03-01T11:54:13;5.80;82.80
38941;DHT22;43236;47.208;7.518;2023-03-01T11:57:13;5.80;81.30
38941;DHT22;43236;47.208;7.518;2023-03-01T12:00:17;5.80;81.40
38941;DHT22;43236;47.208;7.518;2023-03-01T12:03:28;5.80;81.40
38941;DHT22;43236;47.208;7.518;2023-03-01T12:06:33;5.80;81.50
38941;DHT22;43236;47.208;7.518;2023-03-01T12:09:34;5.80;81.80
38941;DHT22;43236;47.208;7.518;2023-03-01T12:12:33;5.80;81.80
38941;DHT22;43236;47.208;7.518;2023-03-01T12:15:37;5.80;81.70
38941;DHT22;43236;47.208;7.518;2023-03-01T12:18:44;5.80;81.20
38941;DHT22;43236;47.208;7.518;2023-03-01T12:22:01;5.80;81.30
38941;DHT22;43236;47.208;7.518;2023-03-01T12:25:02;5.70;81.20
38941;DHT22;43236;47.208;7.518;2023-03-01T12:28:09;5.70;81.40
38941;DHT22;43236;47.208;7.518;2023-03-01T12:31:17;5.70;81.50
38941;DHT22;43236;47.208;7.518;2023-03-01T12:34:30;5.70;81.50
38941;DHT22;43236;47.208;7.518;2023-03-01T12:37:25;5.70;81.80
38941;DHT22;43236;47.208;7.518;2023-03-01T12:40:33;5.80;81.80
38941;DHT22;43236;47.208;7.518;2023-03-01T12:43:28;5.80;81.80
38941;DHT22;43236;47.208;7.518;2023-03-01T12:46:29;5.90;81.70
38941;DHT22;43236;47.208;7.518;2023-03-01T12:49:24;5.90;81.50
38941;DHT22;43236;47.208;7.518;2023-03-01T12:52:19;5.80;81.40
38941;DHT22;43236;47.208;7.518;2023-03-01T12:55:22;5.80;81.50
38941;DHT22;43236;47.208;7.518;2023-03-01T12:58:22;5.80;81.10
38941;DHT22;43236;47.208;7.518;2023-03-01T13:01:21;5.90;81.50
38941;DHT22;43236;47.208;7.518;2023-03-01T13:04:26;5.90;81.50
38941;DHT22;43236;47.208;7.518;2023-03-01T13:07:22;6.00;81.60
38941;DHT22;43236;47.208;7.518;2023-03-01T13:10:21;6.00;81.00
38941;DHT22;43236;47.208;7.518;2023-03-01T13:13:19;6.00;80.90
38941;DHT22;43236;47.208;7.518;2023-03-01T13:16:22;6.00;81.20
38941;DHT22;43236;47.208;7.518;2023-03-01T13:19:27;6.00;81.30
38941;DHT22;43236;47.208;7.518;2023-03-01T13:22:26;6.10;81.30
38941;DHT22;43236;47.208;7.518;2023-03-01T13:25:16;6.10;80.50
38941;DHT22;43236;47.208;7.518;2023-03-01T13:31:58;6.00;80.70
38941;DHT22;43236;47.208;7.518;2023-03-01T13:34:54;6.00;80.70
38941;DHT22;43236;47.208;7.518;2023-03-01T13:37:41;5.90;80.70
38941;DHT22;43236;47.208;7.518;2023-03-01T13:40:57;5.90;81.20
38941;DHT22;43236;47.208;7.518;2023-03-01T13:43:46;6.00;81.10
38941;DHT22;43236;47.208;7.518;2023-03-01T13:46:33;5.90;81.00
38941;DHT22;43236;47.208;7.518;2023-03-01T13:49:22;6.00;81.50
38941;DHT22;43236;47.208;7.518;2023-03-01T13:55:32;6.10;80.50
38941;DHT22;43236;47.208;7.518;2023-03-01T13:58:23;6.10;80.50
38941;DHT22;43236;47.208;7.518;2023-03-01T14:01:21;6.10;80.50
38941;DHT22;43236;47.208;7.518;2023-03-01T14:04:20;6.00;80.10
38941;DHT22;43236;47.208;7.518;2023-03-01T14:07:12;5.90;80.20
38941;DHT22;43236;47.208;7.518;2023-03-01T14:10:02;5.90;80.70
38941;DHT22;43236;47.208;7.518;2023-03-01T14:12:53;5.90;80.60
38941;DHT22;43236;47.208;7.518;2023-03-01T14:15:46;5.90;80.60
38941;DHT22;43236;47.208;7.518;2023-03-01T14:18:42;5.90;81.50
38941;DHT22;43236;47.208;7.518;2023-03-01T14:21:30;6.00;80.90
38941;DHT22;43236;47.208;7.518;2023-03-01T14:24:20;6.00;80.70
38941;DHT22;43236;47.208;7.518;2023-03-01T14:27:11;6.00;80.20
38941;DHT22;43236;47.208;7.518;2023-03-01T14:30:00;6.00;80.90
38941;DHT22;43236;47.208;7.518;2023-03-01T14:32:53;6.00;80.30
38941;DHT22;43236;47.208;7.518;2023-03-01T14:35:40;6.00;80.40
38941;DHT22;43236;47.208;7.518;2023-03-01T14:38:33;6.00;80.20
38941;DHT22;43236;47.208;7.518;2023-03-01T14:41:23;5.90;80.20
38941;DHT22;43236;47.208;7.518;2023-03-01T14:44:16;5.90;80.80
38941;DHT22;43236;47.208;7.518;2023-03-01T14:47:05;5.90;80.60
38941;DHT22;43236;47.208;7.518;2023-03-01T14:49:57;5.90;80.50
38941;DHT22;43236;47.208;7.518;2023-03-01T14:52:47;5.90;80.70
38941;DHT22;43236;47.208;7.518;2023-03-01T14:55:37;5.90;80.50
38941;DHT22;43236;47.208;7.518;2023-03-01T14:58:26;5.90;81.20
38941;DHT22;43236;47.208;7.518;2023-03-01T15:01:16;5.90;80.60
38941;DHT22;43236;47.208;7.518;2023-03-01T15:04:04;5.90;80.80
38941;DHT22;43236;47.208;7.518;2023-03-01T15:06:53;5.90;80.60
38941;DHT22;43236;47.208;7.518;2023-03-01T15:09:41;5.80;80.70
38941;DHT22;43236;47.208;7.518;2023-03-01T15:12:37;5.80;80.60
38941;DHT22;43236;47.208;7.518;2023-03-01T15:15:33;5.90;81.00
38941;DHT22;43236;47.208;7.518;2023-03-01T15:18:26;5.80;80.30
38941;DHT22;43236;47.208;7.518;2023-03-01T15:21:17;5.80;80.90
38941;DHT22;43236;47.208;7.518;2023-03-01T15:24:08;5.90;81.00
38941;DHT22;43236;47.208;7.518;2023-03-01T15:27:14;5.80;80.40
38941;DHT22;43236;47.208;7.518;2023-03-01T15:30:03;5.80;81.00
38941;DHT22;43236;47.208;7.518;2023-03-01T15:33:19;5.80;80.60
38941;DHT22;43236;47.208;7.518;2023-03-01T15:36:31;5.90;80.80
38941;DHT22;43236;47.208;7.518;2023-03-01T15:39:31;5.80;80.40
38941;DHT22;43236;47.208;7.518;2023-03-01T15:42:36;5.80;80.80
38941;DHT22;43236;47.208;7.518;2023-03-01T15:45:25;5.70;80.50
38941;DHT22;43236;47.208;7.518;2023-03-01T15:48:17;5.80;81.10
38941;DHT22;43236;47.208;7.518;2023-03-01T15:51:12;5.80;80.40
38941;DHT22;43236;47.208;7.518;2023-03-01T15:54:05;5.80;80.80
38941;DHT22;43236;47.208;7.518;2023-03-01T15:56:53;5.80;80.30
38941;DHT22;43236;47.208;7.518;2023-03-01T15:59:40;5.80;80.50
38941;DHT22;43236;47.208;7.518;2023-03-01T16:02:28;5.80;80.20
38941;DHT22;43236;47.208;7.518;2023-03-01T16:05:19;5.70;80.30
38941;DHT22;43236;47.208;7.518;2023-03-01T16:08:06;5.70;80.30
38941;DHT22;43236;47.208;7.518;2023-03-01T16:10:55;5.70;80.30
38941;DHT22;43236;47.208;7.518;2023-03-01T16:13:43;5.70;80.30
38941;DHT22;43236;47.208;7.518;2023-03-01T16:16:31;5.70;80.50
38941;DHT22;43236;47.208;7.518;2023-03-01T16:19:18;5.70;80.50
38941;DHT22;43236;47.208;7.518;2023-03-01T16:22:05;5.70;80.20
38941;DHT22;43236;47.208;7.518;2023-03-01T16:24:52;5.70;80.60
38941;DHT22;43236;47.208;7.518;2023-03-01T16:27:42;5.70;80.50
38941;DHT22;43236;47.208;7.518;2023-03-01T16:30:29;5.70;80.60
38941;DHT22;43236;47.208;7.518;2023-03-01T16:33:16;5.70;80.30
38941;DHT22;43236;47.208;7.518;2023-03-01T16:36:08;5.80;80.80
38941;DHT22;43236;47.208;7.518;2023-03-01T16:38:58;5.80;80.60
38941;DHT22;43236;47.208;7.518;2023-03-01T16:41:46;5.80;80.20
38941;DHT22;43236;47.208;7.518;2023-03-01T16:44:34;5.80;80.00
38941;DHT22;43236;47.208;7.518;2023-03-01T16:47:21;5.80;80.00
38941;DHT22;43236;47.208;7.518;2023-03-01T16:50:09;5.80;80.10
38941;DHT22;43236;47.208;7.518;2023-03-01T16:52:56;5.70;80.00
38941;DHT22;43236;47.208;7.518;2023-03-01T16:55:43;5.70;80.30
38941;DHT22;43236;47.208;7.518;2023-03-01T16:58:31;5.70;80.40
38941;DHT22;43236;47.208;7.518;2023-03-01T17:01:20;5.70;80.30
38941;DHT22;43236;47.208;7.518;2023-03-01T17:04:11;5.60;80.40
38941;DHT22;43236;47.208;7.518;2023-03-01T17:06:58;5.60;81.10
38941;DHT22;43236;47.208;7.518;2023-03-01T17:09:45;5.60;80.40
38941;DHT22;43236;47.208;7.518;2023-03-01T17:12:33;5.60;80.80
38941;DHT22;43236;47.208;7.518;2023-03-01T17:15:20;5.50;80.70
38941;DHT22;43236;47.208;7.518;2023-03-01T17:18:08;5.50;80.70
38941;DHT22;43236;47.208;7.518;2023-03-01T17:20:55;5.60;80.90
38941;DHT22;43236;47.208;7.518;2023-03-01T17:23:43;5.60;80.70
38941;DHT22;43236;47.208;7.518;2023-03-01T17:26:32;5.50;80.60
38941;DHT22;43236;47.208;7.518;2023-03-01T17:29:19;5.50;80.70
38941;DHT22;43236;47.208;7.518;2023-03-01T17:32:06;5.50;80.90
38941;DHT22;43236;47.208;7.518;2023-03-01T17:34:54;5.50;81.00
38941;DHT22;43236;47.208;7.518;2023-03-01T17:37:41;5.50;81.20
38941;DHT22;43236;47.208;7.518;2023-03-01T17:40:31;5.40;81.00
38941;DHT22;43236;47.208;7.518;2023-03-01T17:43:20;5.40;80.90
38941;DHT22;43236;47.208;7.518;2023-03-01T17:46:07;5.40;81.00
38941;DHT22;43236;47.208;7.518;2023-03-01T17:48:54;5.40;81.10
38941;DHT22;43236;47.208;7.518;2023-03-01T17:51:43;5.40;81.30
38941;DHT22;43236;47.208;7.518;2023-03-01T17:54:30;5.40;81.90
38941;DHT22;43236;47.208;7.518;2023-03-01T17:57:18;5.40;81.30
38941;DHT22;43236;47.208;7.518;2023-03-01T18:00:06;5.40;81.60
38941;DHT22;43236;47.208;7.518;2023-03-01T18:02:53;5.40;81.40
38941;DHT22;43236;47.208;7.518;2023-03-01T18:05:40;5.50;81.20
38941;DHT22;43236;47.208;7.518;2023-03-01T18:08:29;5.50;80.80
38941;DHT22;43236;47.208;7.518;2023-03-01T18:11:16;5.50;81.00
38941;DHT22;43236;47.208;7.518;2023-03-01T18:14:04;5.60;80.90
38941;DHT22;43236;47.208;7.518;2023-03-01T18:16:51;5.60;81.60
38941;DHT22;43236;47.208;7.518;2023-03-01T18:19:38;5.60;80.90
38941;DHT22;43236;47.208;7.518;2023-03-01T18:22:25;5.70;80.80
38941;DHT22;43236;47.208;7.518;2023-03-01T18:25:14;5.70;80.30
38941;DHT22;43236;47.208;7.518;2023-03-01T18:28:01;5.70;80.40